Saturday, May 26, 2018, 12:04 PM GMT
Back to Local

CYQM, Moncton, N. B.

Location: , , Canada Lat: 46.117
Local Time: 12:04 PM GMT (12:04 GMT) Lon: -64.683
Time Zone: GMT Elev: 232 ft

Show me the last for .
Show Decoded

2018-05-26 11:39 METAR CYQM 261139Z 36008KT 7SM -SHRA BKN003 OVC010 09/09 A2963 RMK SF7SC1 CVCTV
                 CLD EMBD SLP036 =
2018-05-26 11:00 METAR CYQM 261100Z 01005KT 7SM -SHRA BKN004 OVC006 09/08 A2962 RMK SF6SF2 CVCTV
                 CLD EMBD SLP031 =
2018-05-26 10:49 METAR CYQM 261049Z 36007KT 7SM -SHRA BKN004 OVC006 09/08 A2962 RMK SF6SF2 SLP031
                 =
2018-05-26 10:00 METAR CYQM 261000Z 36005KT 12SM -SHRA BKN006 OVC010 09/08 A2961 RMK SF6SC2 CVCTV
                 CLD EMBD SLP029 =
2018-05-26 09:48 METAR CYQM 260948Z 36004KT 15SM -SHRA BKN006 OVC010 09/08 A2961 RMK SF7SC1 CVCTV
                 CLD EMBD PRESRR SLP030 =
2018-05-26 09:13 METAR CYQM 260913Z 01008KT 12SM BKN005 OVC007 09/09 A2958 RMK SF5SF3 SLP018 =
2018-05-26 09:00 METAR CYQM 260900Z 03008KT 12SM BKN004 OVC006 09/09 A2958 RMK SF7SF1 VIS S 6
                 SLP018 =
2018-05-26 08:51 METAR CYQM 260851Z 02008KT 10SM OVC004 09/09 A2958 RMK SF8 SLP019 =
2018-05-26 08:00 METAR CYQM 260800Z 01008KT 12SM BKN003 OVC005 10/09 A2957 RMK SF7SF1 SLP014 =
2018-05-26 07:00 METAR CYQM 260700Z 01005KT 6SM BR OVC002 11/10 A2957 RMK SF8 SLP017 =
2018-05-26 06:00 METAR CYQM 260600Z 03005KT 6SM -SHRA OVC002 12/12 A2957 RMK SF8 SLP015 DENSITY
                 ALT 400FT =
2018-05-26 05:00 METAR CYQM 260500Z 04003KT 300V050 8SM BKN004 OVC098 13/13 A2955 RMK SF6AC2
                 SLP009 DENSITY ALT 500FT =
2018-05-26 04:19 METAR CYQM 260419Z 20003KT 190V250 10SM -SHRA BKN003 OVC099 13/13 A2956 RMK
                 SF5AC3 CVCVTV CLD EMBD SLP012 DENSITY ALT 600FT =
2018-05-26 04:00 METAR CYQM 260400Z 22003KT 15SM -SHRA FEW006 BKN062 BKN086 14/13 A2956 RMK
                 SF1SC4AC2 CVCTV CLD EMBD SLP012 DENSITY ALT 600FT =
2018-05-26 03:42 METAR CYQM 260342Z 22004KT 10SM -SHRA FEW005 SCT064 BKN110 14/13 A2956 RMK
                 SF2SC2AC3 CVCTV CLD EMBD SLP012 DENSITY ALT 600FT =
2018-05-26 03:00 METAR CYQM 260300Z 14002KT 15SM BKN063 BKN140 14/14 A2955 RMK SC5AC2 SLP010
                 DENSITY ALT 700FT =
2018-05-26 02:17 METAR CYQM 260217Z 00000KT 10SM -SHRA BKN059 OVC110 14/14 A2957 RMK SC6AC2 CVCTV
                 CLD EMBD SLP017 DENSITY ALT 600FT =
2018-05-26 02:00 METAR CYQM 260200Z VRB02KT 15SM BKN059 BKN110 15/14 A2957 RMK SC5AC2 SLP014
                 DENSITY ALT 800FT =
2018-05-26 01:00 METAR CYQM 260100Z 19006KT 12SM -SHRA FEW063 BKN093 16/15 A2957 RMK SC2AC4 CVCTV
                 CLD EMBD SLP016 DENSITY ALT 800FT =
2018-05-26 00:17 METAR CYQM 260017Z 17007KT 10SM -SHRA FEW062TCU BKN098 15/15 A2956 RMK TCU2AC4
                 CVCTV CLD EMBD SLP011 DENSITY ALT 800FT =
2018-05-26 00:00 METAR CYQM 260000Z 18009KT 12SM -TSRA SCT062CB BKN096 16/14 A2957 RMK CB3AC4
                 SLP014 DENSITY ALT 800FT =
2018-05-25 23:00 METAR CYQM 252300Z 18005KT 170V240 10SM -TSRA SCT063CB BKN075 19/15 A2954 RMK
                 CB3AC3 SLP005 DENSITY ALT 1200FT =
2018-05-25 22:23 METAR CYQM 252223Z 24004KT 190V250 10SM -TSRA SCT062CB BKN078 19/14 A2955 RMK
                 CB4AC3 CB SE-W PRESRR SLP008 DENSITY ALT 1300FT
2018-05-25 22:00 METAR CYQM 252200Z 24007KT 10SM -SHRA FEW056 BKN072 20/14 A2954 RMK SC2AC5 CVCTV
                 CLD EMBD SLP007 DENSITY ALT 1300FT =
2018-05-25 21:42 METAR CYQM 252142Z 23008KT 210V280 15SM -SHRA SCT054 BKN071 21/13 A2954 RMK
                 SC3AC4 CVCTV CLD EMBD SLP004 DENSITY ALT 1500FT =
2018-05-25 21:00 METAR CYQM 252100Z 28009G19KT 15SM FEW042 BKN077 22/11 A2953 RMK CU1AC7 CU TR
                 SLP001 DENSITY ALT 1500FT =
2018-05-25 20:00 METAR CYQM 252000Z 24014G19KT 15SM FEW040 FEW071 FEW130 SCT260 22/12 A2954 RMK
                 CU1AC1AC1CI1 CU TR SLP005 DENSITY ALT 1600FT =
2018-05-25 19:00 METAR CYQM 251900Z 24012G18KT 15SM BKN069 BKN150 20/12 A2955 RMK AC5AC2 SLP009
                 DENSITY ALT 1300FT =
2018-05-25 18:00 METAR CYQM 251800Z 22015G21KT 15SM FEW064 FEW100 FEW160 SCT260 18/11 A2956 RMK
                 SC1AC1AC1CI1 SC TR SLP011 DENSITY ALT 1100FT =
2018-05-25 17:00 METAR CYQM 251700Z 23012G18KT 15SM SCT098 BKN140 16/11 A2957 RMK AC3AC4 SLP014
                 DENSITY ALT 800FT =
2018-05-25 16:00 METAR CYQM 251600Z 23011G18KT 15SM FEW061 SCT110 BKN150 14/11 A2958 RMK
                 SC2AC1AC4 SLP018 DENSITY ALT 600FT =
2018-05-25 15:00 METAR CYQM 251500Z 23013KT 15SM FEW010 FEW061 BKN078 OVC130 11/10 A2960 RMK
                 SF1SC1AC5AC2 SF TR SLP028 DENSITY ALT 300FT =
2018-05-25 14:50 METAR CYQM 251450Z 24012KT 15SM FEW010 BKN078 OVC130 11/10 A2961 RMK SF1AC6AC2
                 SF TR SLP031 =
2018-05-25 14:00 METAR CYQM 251400Z 22016KT 15SM -RA FEW010 FEW060 BKN081 BKN120 11/09 A2962 RMK
                 CF1SC1AC5AC1 CF TR SLP032 =
2018-05-25 13:00 METAR CYQM 251300Z 24012G20KT 15SM -RA FEW012 FEW060 BKN120 11/09 A2962 RMK
                 CF1SC2AC5 CF TR SLP035 =

Support USWX by starting your Amazon purchase here.